Delta Hellas — SVAK8 — position and weather

sailwx.info

Track history (hours):
 
Tides and Currents Weather Stations Pressure Air Temp Water Temp Dewpoint Dewpoint Depression Visibility Wind Speed Wind Dir Waves Ship Positions

Delta Hellas

Last reported at 2018-Jun-25 06:00 UTC. Time now 2018-Jun-25 06:15 UTC.
Position N 55°54' E 012°44'.

Length 276 m; draft 6.7 m.

Type: Tanker. MMSI: 240820000.

Date/timePositionNaut miles runAvg speedWind from/ knotsBaromVisibWave heightAir tempDewpointWater temp
2018-Jun-25 06:00N 55°54' E 012°44'612.4
2018-Jun-25 05:30N 55°60' E 012°40'611.3
2018-Jun-25 05:00N 56°05' E 012°36'611.7
2018-Jun-25 04:30N 56°08' E 012°28'5 9.8
2018-Jun-25 04:00N 56°11' E 012°20'4 8.6
2018-Jun-25 03:30N 56°14' E 012°14'4 8.4
2018-Jun-25 03:00N 56°16' E 012°07'5 8.6
2018-Jun-25 02:25N 56°20' E 012°02'4 8.9
2018-Jun-25 01:57N 56°24' E 012°00'3 6.8
2018-Jun-25 01:30N 56°27' E 011°60'4 5.6
2018-Jun-25 00:52N 56°30' E 011°58'2 6.0
2018-Jun-25 00:30N 56°33' E 011°57'3 6.5
2018-Jun-25 00:00N 56°36' E 011°56'4 7.2
2018-Jun-24 23:27N 56°40' E 011°54'3 7.0
2018-Jun-24 23:00N 56°43' E 011°52'4 6.7
2018-Jun-24 22:29N 56°46' E 011°51'5 7.0
2018-Jun-24 21:49N 56°50' E 011°48'2 7.2
2018-Jun-24 21:30N 56°52' E 011°47'4 7.2
2018-Jun-24 20:59N 56°56' E 011°44'4 7.1
2018-Jun-24 20:28N 56°59' E 011°42'4 7.5
2018-Jun-24 19:59N 57°03' E 011°40'6 7.4
2018-Jun-24 19:08N 57°09' E 011°36'1 7.4
2018-Jun-24 18:57N 57°10' E 011°36'3 7.6
2018-Jun-24 18:30N 57°13' E 011°33'4 7.9
2018-Jun-24 18:00N 57°17' E 011°31'4 7.7
2018-Jun-24 17:30N 57°21' E 011°29'4 7.8
2018-Jun-24 17:00N 57°24' E 011°26'4 7.9
2018-Jun-24 16:30N 57°28' E 011°23'4 7.9
2018-Jun-24 16:00N 57°31' E 011°18'4 7.3
2018-Jun-24 15:30N 57°33' E 011°13'3 6.9
2018-Jun-24 15:00N 57°36' E 011°08'4 7.0
2018-Jun-24 14:30N 57°38' E 011°03'4 7.2
2018-Jun-24 14:00N 57°40' E 010°58'4 7.2
2018-Jun-24 13:30N 57°43' E 010°53'4 7.3
2018-Jun-24 13:00N 57°45' E 010°49'4 7.2
2018-Jun-24 12:30N 57°47' E 010°43'4 7.6
2018-Jun-24 12:00N 57°48' E 010°36'4 7.2
2018-Jun-24 11:30N 57°48' E 010°29'4 7.4
2018-Jun-24 11:00N 57°48' E 010°22'4 7.5
2018-Jun-24 10:30N 57°48' E 010°15'4 7.3
2018-Jun-24 10:00N 57°48' E 010°08'4 7.2
2018-Jun-24 09:30N 57°47' E 010°02'4 7.4
2018-Jun-24 09:00N 57°47' E 009°55'5 7.6
2018-Jun-24 08:21N 57°47' E 009°46'  
2018-Jun-21 02:53N 52°07' E 002°50'0 0.1
2018-Jun-21 00:02N 52°07' E 002°50'0 0.1
2018-Jun-20 23:53N 52°07' E 002°50'0 0.0
2018-Jun-20 19:21N 52°07' E 002°50'8 6.2
2018-Jun-20 18:02N 52°05' E 003°02'210.6
2018-Jun-20 17:49N 52°04' E 003°06'310.6
2018-Jun-20 17:30N 52°04' E 003°11'510.8
2018-Jun-20 17:00N 52°04' E 003°20'511.0
2018-Jun-20 16:31N 52°04' E 003°29'611.1
2018-Jun-20 16:00N 52°04' E 003°38'611.5
2018-Jun-20 15:31N 52°03' E 003°47'611.0
2018-Jun-20 15:01N 52°02' E 003°56'4 7.7
2018-Jun-20 14:30N 51°60' E 004°01'3 5.4
2018-Jun-20 14:00N 51°58' E 004°04'0 0.4
2018-Jun-20 13:30N 51°58' E 004°04'0 0.0
2018-Jun-20 13:00N 51°58' E 004°04'0 0.0
2018-Jun-20 12:30N 51°58' E 004°04'0 0.0
2018-Jun-20 12:00N 51°58' E 004°04'0 0.0
2018-Jun-20 11:30N 51°58' E 004°04'0 0.0
2018-Jun-20 11:00N 51°58' E 004°04'0 0.0
2018-Jun-20 10:30N 51°58' E 004°04'0 0.0
2018-Jun-20 09:57N 51°58' E 004°04'0 0.0
2018-Jun-20 09:30N 51°58' E 004°04'0 0.0
2018-Jun-20 09:00N 51°58' E 004°04'0 0.0
2018-Jun-20 08:27N 51°58' E 004°04'0 0.0
2018-Jun-20 08:00N 51°58' E 004°04'0 0.0
2018-Jun-20 07:30N 51°58' E 004°04'0 0.0
2018-Jun-20 07:00N 51°58' E 004°04'0 0.0
2018-Jun-20 06:30N 51°58' E 004°04'0 0.0
2018-Jun-20 05:57N 51°58' E 004°04'0 0.0
2018-Jun-20 05:30N 51°58' E 004°04'0 0.0
2018-Jun-20 05:00N 51°58' E 004°04'0 0.0
2018-Jun-20 04:30N 51°58' E 004°04'0 0.0
2018-Jun-20 04:00N 51°58' E 004°04'0 0.0
2018-Jun-20 03:30N 51°58' E 004°04'0 0.0
2018-Jun-20 03:00N 51°58' E 004°04'0 0.0
2018-Jun-20 02:30N 51°58' E 004°04'0 0.0
2018-Jun-20 02:00N 51°58' E 004°04'0 0.0
2018-Jun-20 01:30N 51°58' E 004°04'0 0.0
2018-Jun-20 01:00N 51°58' E 004°04'0 0.0
2018-Jun-20 00:30N 51°58' E 004°04'0 0.0
2018-Jun-20 00:00N 51°58' E 004°04'0 0.0
2018-Jun-19 23:30N 51°58' E 004°04'0 0.0
2018-Jun-19 23:00N 51°58' E 004°04'0 0.0
2018-Jun-19 22:30N 51°58' E 004°04'0 0.0
2018-Jun-19 22:00N 51°58' E 004°04'0 0.0
2018-Jun-19 21:30N 51°58' E 004°04'0 0.0
2018-Jun-19 20:57N 51°58' E 004°04'0 0.0
2018-Jun-19 20:27N 51°58' E 004°04'0 0.0
2018-Jun-19 20:00N 51°58' E 004°04'0 0.0
2018-Jun-19 19:27N 51°58' E 004°04'0 0.0
2018-Jun-19 19:00N 51°58' E 004°04'0 0.0
2018-Jun-19 18:30N 51°58' E 004°04'0 0.0
2018-Jun-19 18:00N 51°58' E 004°04'0 0.0
2018-Jun-19 17:30N 51°58' E 004°04'0 0.0
2018-Jun-19 17:00N 51°58' E 004°04'0 0.0
2018-Jun-19 16:27N 51°58' E 004°04'0 0.0
2018-Jun-19 16:00N 51°58' E 004°04'0 0.0
2018-Jun-19 15:30N 51°58' E 004°04'0 0.0
2018-Jun-19 14:57N 51°58' E 004°04'0 0.0
2018-Jun-19 14:30N 51°58' E 004°04'0 0.0
2018-Jun-19 13:57N 51°58' E 004°04'0 0.0
2018-Jun-19 13:30N 51°58' E 004°04'0 0.0
2018-Jun-19 12:51N 51°58' E 004°04'0 0.0
2018-Jun-19 12:30N 51°58' E 004°04'0 0.0
2018-Jun-19 12:00N 51°58' E 004°04'0 0.0
2018-Jun-19 11:30N 51°58' E 004°04'0 0.0
2018-Jun-19 11:00N 51°58' E 004°04'0 0.0
2018-Jun-19 10:30N 51°58' E 004°04'0 0.0
2018-Jun-19 10:00N 51°58' E 004°04'0 0.0
2018-Jun-19 09:30N 51°58' E 004°04'0 0.0
2018-Jun-19 09:00N 51°58' E 004°04'0 0.0
2018-Jun-19 08:30N 51°58' E 004°04'0 0.0
2018-Jun-19 07:57N 51°58' E 004°04'0 0.0
2018-Jun-19 07:30N 51°58' E 004°04'0 0.0
2018-Jun-19 06:57N 51°58' E 004°04'0 0.0
2018-Jun-19 06:27N 51°58' E 004°04'0 0.0
2018-Jun-19 06:00N 51°58' E 004°04'0 0.1
2018-Jun-19 05:30N 51°58' E 004°04'1 1.3
2018-Jun-19 05:00N 51°58' E 004°05'3 6.5
2018-Jun-19 04:31N 51°60' E 004°01'510.5
2018-Jun-19 04:01N 52°02' E 003°53'5 9.4
2018-Jun-19 03:31N 52°01' E 003°45'3 6.4
2018-Jun-19 03:01N 52°01' E 003°40'4 7.5
2018-Jun-19 02:31N 52°00' E 003°34'4 7.8
2018-Jun-19 02:00N 51°60' E 003°28'4 7.4
2018-Jun-19 01:30N 51°59' E 003°22'5 7.2
2018-Jun-19 00:50N 51°59' E 003°14'2 3.1
2018-Jun-19 00:08N 52°00' E 003°11'0 0.1
2018-Jun-18 20:47N 52°00' E 003°12'0 0.0
2018-Jun-18 20:23N 52°00' E 003°12'0 0.0
2018-Jun-18 19:56N 52°00' E 003°12'0 0.0
2018-Jun-18 19:23N 52°00' E 003°12'0 0.0
2018-Jun-18 18:59N 52°00' E 003°12'0 0.0
2018-Jun-18 18:29N 52°00' E 003°12'0 0.0
2018-Jun-18 17:59N 52°00' E 003°12'0 0.0
2018-Jun-18 16:05N 52°00' E 003°12'0 0.0
2018-Jun-18 15:56N 52°00' E 003°12'0 0.0
2018-Jun-18 15:29N 52°00' E 003°12'0 0.3
2018-Jun-18 14:50N 52°00' E 003°12'0 0.2
2018-Jun-18 14:14N 52°00' E 003°12'0 0.1
2018-Jun-18 13:44N 52°00' E 003°11'0 0.0
2018-Jun-18 13:14N 52°00' E 003°11'0 0.0
2018-Jun-18 03:35N 52°00' E 003°12'0 0.1
2018-Jun-18 03:20N 52°00' E 003°12'0 0.0
2018-Jun-17 18:44N 52°00' E 003°12'0 0.0
2018-Jun-17 18:26N 52°00' E 003°12'0 0.0
2018-Jun-17 17:44N 52°00' E 003°12'0 0.0
2018-Jun-17 17:23N 52°00' E 003°12'0 0.0
2018-Jun-17 16:53N 52°00' E 003°12'0 0.0
2018-Jun-17 16:29N 52°00' E 003°12'0 0.0
2018-Jun-17 05:08N 52°00' E 003°12'0 0.0
2018-Jun-17 04:44N 52°00' E 003°12'0 0.0
2018-Jun-17 03:38N 52°00' E 003°12'0 0.1
2018-Jun-17 02:38N 52°00' E 003°12'0 0.0
2018-Jun-17 02:29N 52°00' E 003°12'0 0.2
2018-Jun-17 00:38N 52°00' E 003°12'0 0.1
2018-Jun-16 23:17N 52°00' E 003°11'0 0.0
2018-Jun-16 22:47N 52°00' E 003°11'0 0.0
2018-Jun-16 22:26N 52°00' E 003°11'0 0.2
2018-Jun-16 20:32N 52°00' E 003°12'0 0.3
2018-Jun-16 20:29N 52°00' E 003°12'0 0.1
2018-Jun-16 19:56N 52°00' E 003°12'0 0.1
2018-Jun-16 19:29N 52°00' E 003°12'0 0.0
2018-Jun-16 18:59N 52°00' E 003°12'0 0.0
2018-Jun-16 18:29N 52°00' E 003°12'0 0.0
2018-Jun-16 17:50N 52°00' E 003°12'0 0.0
2018-Jun-16 17:26N 52°00' E 003°12'0 0.0
2018-Jun-16 16:23N 52°00' E 003°12'0 0.1
2018-Jun-16 15:53N 52°00' E 003°12'0 0.0
2018-Jun-16 13:53N 52°00' E 003°12'0 0.3
2018-Jun-16 13:26N 52°00' E 003°12'0 0.4
2018-Jun-16 12:56N 52°00' E 003°12'0 0.1
2018-Jun-16 12:20N 52°00' E 003°12'0 0.1
2018-Jun-16 11:59N 52°00' E 003°11'0 0.0
2018-Jun-16 11:29N 52°00' E 003°11'0 0.0
2018-Jun-16 10:59N 52°00' E 003°11'0 0.0
2018-Jun-16 10:17N 52°00' E 003°11'0 0.0
2018-Jun-16 09:50N 52°00' E 003°11'0 0.0
2018-Jun-16 08:26N 52°00' E 003°11'0 0.4
2018-Jun-16 07:56N 52°00' E 003°11'0 0.2
2018-Jun-16 07:14N 52°00' E 003°12'0 0.0
2018-Jun-16 06:59N 52°00' E 003°12'0 0.0
2018-Jun-16 06:29N 52°00' E 003°12'0 0.1
2018-Jun-16 05:44N 52°00' E 003°12'0 0.0
2018-Jun-16 05:20N 52°00' E 003°12'0 0.1
2018-Jun-16 04:50N 52°00' E 003°12'0 0.0
2018-Jun-16 04:17N 52°00' E 003°12'0 0.1
2018-Jun-16 03:59N 52°00' E 003°12'0 0.0
2018-Jun-16 03:20N 52°00' E 003°12'0 0.0
2018-Jun-16 02:56N 52°00' E 003°12'0 0.0
2018-Jun-16 02:17N 52°00' E 003°12'0 0.1
2018-Jun-16 01:14N 52°00' E 003°12'0 0.4
2018-Jun-16 00:56N 52°00' E 003°12'0 0.2
2018-Jun-16 00:17N 52°00' E 003°12'0 0.0
2018-Jun-15 23:56N 52°00' E 003°12'0 0.1
2018-Jun-15 23:29N 52°00' E 003°11'0 0.0
2018-Jun-15 22:56N 52°00' E 003°11'0 0.0
2018-Jun-15 22:26N 52°00' E 003°11'0 0.0
2018-Jun-15 21:59N 52°00' E 003°11'0 0.0
2018-Jun-15 21:29N 52°00' E 003°11'0 0.1
2018-Jun-15 20:59N 52°00' E 003°12'0 0.0
2018-Jun-15 20:23N 52°00' E 003°12'0 0.0
2018-Jun-15 19:59N 52°00' E 003°12'0 0.2
2018-Jun-15 19:20N 52°00' E 003°11'0 0.3
2018-Jun-15 18:59N 52°00' E 003°12'0 0.1
2018-Jun-15 18:29N 52°00' E 003°12'0 0.1
2018-Jun-15 17:59N 52°00' E 003°12'0 0.0
2018-Jun-15 17:29N 52°00' E 003°12'0 0.0
2018-Jun-15 16:59N 52°00' E 003°12'0 0.0
2018-Jun-15 16:29N 52°00' E 003°12'0 0.0
2018-Jun-15 15:59N 52°00' E 003°12'0 0.0
2018-Jun-15 15:26N 52°00' E 003°12'0 0.0
2018-Jun-15 14:59N 52°00' E 003°12'0 0.1
2018-Jun-15 14:26N 52°00' E 003°12'0 0.0
2018-Jun-15 13:59N 52°00' E 003°12'0 0.0
2018-Jun-15 13:29N 52°00' E 003°12'0 0.2
2018-Jun-15 12:56N 52°00' E 003°12'0 0.4
2018-Jun-15 12:29N 52°00' E 003°12'0 0.1
2018-Jun-15 11:59N 52°00' E 003°12'0 0.1
2018-Jun-15 11:17N 52°00' E 003°12'0 0.0
2018-Jun-15 10:53N 52°00' E 003°12'0 0.1
2018-Jun-15 10:20N 52°00' E 003°11'0 0.0
2018-Jun-15 09:56N 52°00' E 003°11'0 0.0
2018-Jun-15 08:38N 52°00' E 003°11'0 0.0
2018-Jun-15 08:17N 52°00' E 003°12'0 0.0
2018-Jun-15 07:50N 52°00' E 003°12'0 0.0
2018-Jun-15 07:26N 52°00' E 003°12'0 0.2
2018-Jun-15 06:59N 52°00' E 003°11'0 0.2
2018-Jun-15 06:23N 52°00' E 003°12'  
Track history (hours):
 
Tides and Currents Weather Stations Pressure Air Temp Water Temp Dewpoint Dewpoint Depression Visibility Wind Speed Wind Dir Waves Ship Positions

Delta Hellas

Last reported at 2018-Jun-25 06:00 UTC. Time now 2018-Jun-25 06:15 UTC.
Position N 55°54' E 012°44'.

Length 276 m; draft 6.7 m.

Type: Tanker. MMSI: 240820000.

Date/timePositionNaut miles runAvg speedWind from/ knotsBaromVisibWave heightAir tempDewpointWater temp
2018-Jun-25 06:00N 55°54' E 012°44'612.4
2018-Jun-25 05:30N 55°60' E 012°40'611.3
2018-Jun-25 05:00N 56°05' E 012°36'611.7
2018-Jun-25 04:30N 56°08' E 012°28'5 9.8
2018-Jun-25 04:00N 56°11' E 012°20'4 8.6
2018-Jun-25 03:30N 56°14' E 012°14'4 8.4
2018-Jun-25 03:00N 56°16' E 012°07'5 8.6
2018-Jun-25 02:25N 56°20' E 012°02'4 8.9
2018-Jun-25 01:57N 56°24' E 012°00'3 6.8
2018-Jun-25 01:30N 56°27' E 011°60'4 5.6
2018-Jun-25 00:52N 56°30' E 011°58'2 6.0
2018-Jun-25 00:30N 56°33' E 011°57'3 6.5
2018-Jun-25 00:00N 56°36' E 011°56'4 7.2
2018-Jun-24 23:27N 56°40' E 011°54'3 7.0
2018-Jun-24 23:00N 56°43' E 011°52'4 6.7
2018-Jun-24 22:29N 56°46' E 011°51'5 7.0
2018-Jun-24 21:49N 56°50' E 011°48'2 7.2
2018-Jun-24 21:30N 56°52' E 011°47'4 7.2
2018-Jun-24 20:59N 56°56' E 011°44'4 7.1
2018-Jun-24 20:28N 56°59' E 011°42'4 7.5
2018-Jun-24 19:59N 57°03' E 011°40'6 7.4
2018-Jun-24 19:08N 57°09' E 011°36'1 7.4
2018-Jun-24 18:57N 57°10' E 011°36'3 7.6
2018-Jun-24 18:30N 57°13' E 011°33'4 7.9
2018-Jun-24 18:00N 57°17' E 011°31'4 7.7
2018-Jun-24 17:30N 57°21' E 011°29'4 7.8
2018-Jun-24 17:00N 57°24' E 011°26'4 7.9
2018-Jun-24 16:30N 57°28' E 011°23'4 7.9
2018-Jun-24 16:00N 57°31' E 011°18'4 7.3
2018-Jun-24 15:30N 57°33' E 011°13'3 6.9
2018-Jun-24 15:00N 57°36' E 011°08'4 7.0
2018-Jun-24 14:30N 57°38' E 011°03'4 7.2
2018-Jun-24 14:00N 57°40' E 010°58'4 7.2
2018-Jun-24 13:30N 57°43' E 010°53'4 7.3
2018-Jun-24 13:00N 57°45' E 010°49'4 7.2
2018-Jun-24 12:30N 57°47' E 010°43'4 7.6
2018-Jun-24 12:00N 57°48' E 010°36'4 7.2
2018-Jun-24 11:30N 57°48' E 010°29'4 7.4
2018-Jun-24 11:00N 57°48' E 010°22'4 7.5
2018-Jun-24 10:30N 57°48' E 010°15'4 7.3
2018-Jun-24 10:00N 57°48' E 010°08'4 7.2
2018-Jun-24 09:30N 57°47' E 010°02'4 7.4
2018-Jun-24 09:00N 57°47' E 009°55'5 7.6
2018-Jun-24 08:21N 57°47' E 009°46'  
2018-Jun-21 02:53N 52°07' E 002°50'0 0.1
2018-Jun-21 00:02N 52°07' E 002°50'0 0.1
2018-Jun-20 23:53N 52°07' E 002°50'0 0.0
2018-Jun-20 19:21N 52°07' E 002°50'8 6.2
2018-Jun-20 18:02N 52°05' E 003°02'210.6
2018-Jun-20 17:49N 52°04' E 003°06'310.6
2018-Jun-20 17:30N 52°04' E 003°11'510.8
2018-Jun-20 17:00N 52°04' E 003°20'511.0
2018-Jun-20 16:31N 52°04' E 003°29'611.1
2018-Jun-20 16:00N 52°04' E 003°38'611.5
2018-Jun-20 15:31N 52°03' E 003°47'611.0
2018-Jun-20 15:01N 52°02' E 003°56'4 7.7
2018-Jun-20 14:30N 51°60' E 004°01'3 5.4
2018-Jun-20 14:00N 51°58' E 004°04'0 0.4
2018-Jun-20 13:30N 51°58' E 004°04'0 0.0
2018-Jun-20 13:00N 51°58' E 004°04'0 0.0
2018-Jun-20 12:30N 51°58' E 004°04'0 0.0
2018-Jun-20 12:00N 51°58' E 004°04'0 0.0
2018-Jun-20 11:30N 51°58' E 004°04'0 0.0
2018-Jun-20 11:00N 51°58' E 004°04'0 0.0
2018-Jun-20 10:30N 51°58' E 004°04'0 0.0
2018-Jun-20 09:57N 51°58' E 004°04'0 0.0
2018-Jun-20 09:30N 51°58' E 004°04'0 0.0
2018-Jun-20 09:00N 51°58' E 004°04'0 0.0
2018-Jun-20 08:27N 51°58' E 004°04'0 0.0
2018-Jun-20 08:00N 51°58' E 004°04'0 0.0
2018-Jun-20 07:30N 51°58' E 004°04'0 0.0
2018-Jun-20 07:00N 51°58' E 004°04'0 0.0
2018-Jun-20 06:30N 51°58' E 004°04'0 0.0
2018-Jun-20 05:57N 51°58' E 004°04'0 0.0
2018-Jun-20 05:30N 51°58' E 004°04'0 0.0
2018-Jun-20 05:00N 51°58' E 004°04'0 0.0
2018-Jun-20 04:30N 51°58' E 004°04'0 0.0
2018-Jun-20 04:00N 51°58' E 004°04'0 0.0
2018-Jun-20 03:30N 51°58' E 004°04'0 0.0
2018-Jun-20 03:00N 51°58' E 004°04'0 0.0
2018-Jun-20 02:30N 51°58' E 004°04'0 0.0
2018-Jun-20 02:00N 51°58' E 004°04'0 0.0
2018-Jun-20 01:30N 51°58' E 004°04'0 0.0
2018-Jun-20 01:00N 51°58' E 004°04'0 0.0
2018-Jun-20 00:30N 51°58' E 004°04'0 0.0
2018-Jun-20 00:00N 51°58' E 004°04'0 0.0
2018-Jun-19 23:30N 51°58' E 004°04'0 0.0
2018-Jun-19 23:00N 51°58' E 004°04'0 0.0
2018-Jun-19 22:30N 51°58' E 004°04'0 0.0
2018-Jun-19 22:00N 51°58' E 004°04'0 0.0
2018-Jun-19 21:30N 51°58' E 004°04'0 0.0
2018-Jun-19 20:57N 51°58' E 004°04'0 0.0
2018-Jun-19 20:27N 51°58' E 004°04'0 0.0
2018-Jun-19 20:00N 51°58' E 004°04'0 0.0
2018-Jun-19 19:27N 51°58' E 004°04'0 0.0
2018-Jun-19 19:00N 51°58' E 004°04'0 0.0
2018-Jun-19 18:30N 51°58' E 004°04'0 0.0
2018-Jun-19 18:00N 51°58' E 004°04'0 0.0
2018-Jun-19 17:30N 51°58' E 004°04'0 0.0
2018-Jun-19 17:00N 51°58' E 004°04'0 0.0
2018-Jun-19 16:27N 51°58' E 004°04'0 0.0
2018-Jun-19 16:00N 51°58' E 004°04'0 0.0
2018-Jun-19 15:30N 51°58' E 004°04'0 0.0
2018-Jun-19 14:57N 51°58' E 004°04'0 0.0
2018-Jun-19 14:30N 51°58' E 004°04'0 0.0
2018-Jun-19 13:57N 51°58' E 004°04'0 0.0
2018-Jun-19 13:30N 51°58' E 004°04'0 0.0
2018-Jun-19 12:51N 51°58' E 004°04'0 0.0
2018-Jun-19 12:30N 51°58' E 004°04'0 0.0
2018-Jun-19 12:00N 51°58' E 004°04'0 0.0
2018-Jun-19 11:30N 51°58' E 004°04'0 0.0
2018-Jun-19 11:00N 51°58' E 004°04'0 0.0
2018-Jun-19 10:30N 51°58' E 004°04'0 0.0
2018-Jun-19 10:00N 51°58' E 004°04'0 0.0
2018-Jun-19 09:30N 51°58' E 004°04'0 0.0
2018-Jun-19 09:00N 51°58' E 004°04'0 0.0
2018-Jun-19 08:30N 51°58' E 004°04'0 0.0
2018-Jun-19 07:57N 51°58' E 004°04'0 0.0
2018-Jun-19 07:30N 51°58' E 004°04'0 0.0
2018-Jun-19 06:57N 51°58' E 004°04'0 0.0
2018-Jun-19 06:27N 51°58' E 004°04'0 0.0
2018-Jun-19 06:00N 51°58' E 004°04'0 0.1
2018-Jun-19 05:30N 51°58' E 004°04'1 1.3
2018-Jun-19 05:00N 51°58' E 004°05'3 6.5
2018-Jun-19 04:31N 51°60' E 004°01'510.5
2018-Jun-19 04:01N 52°02' E 003°53'5 9.4
2018-Jun-19 03:31N 52°01' E 003°45'3 6.4
2018-Jun-19 03:01N 52°01' E 003°40'4 7.5
2018-Jun-19 02:31N 52°00' E 003°34'4 7.8
2018-Jun-19 02:00N 51°60' E 003°28'4 7.4
2018-Jun-19 01:30N 51°59' E 003°22'5 7.2
2018-Jun-19 00:50N 51°59' E 003°14'2 3.1
2018-Jun-19 00:08N 52°00' E 003°11'0 0.1
2018-Jun-18 20:47N 52°00' E 003°12'0 0.0
2018-Jun-18 20:23N 52°00' E 003°12'0 0.0
2018-Jun-18 19:56N 52°00' E 003°12'0 0.0
2018-Jun-18 19:23N 52°00' E 003°12'0 0.0
2018-Jun-18 18:59N 52°00' E 003°12'0 0.0
2018-Jun-18 18:29N 52°00' E 003°12'0 0.0
2018-Jun-18 17:59N 52°00' E 003°12'0 0.0
2018-Jun-18 16:05N 52°00' E 003°12'0 0.0
2018-Jun-18 15:56N 52°00' E 003°12'0 0.0
2018-Jun-18 15:29N 52°00' E 003°12'0 0.3
2018-Jun-18 14:50N 52°00' E 003°12'0 0.2
2018-Jun-18 14:14N 52°00' E 003°12'0 0.1
2018-Jun-18 13:44N 52°00' E 003°11'0 0.0
2018-Jun-18 13:14N 52°00' E 003°11'0 0.0
2018-Jun-18 03:35N 52°00' E 003°12'0 0.1
2018-Jun-18 03:20N 52°00' E 003°12'0 0.0
2018-Jun-17 18:44N 52°00' E 003°12'0 0.0
2018-Jun-17 18:26N 52°00' E 003°12'0 0.0
2018-Jun-17 17:44N 52°00' E 003°12'0 0.0
2018-Jun-17 17:23N 52°00' E 003°12'0 0.0
2018-Jun-17 16:53N 52°00' E 003°12'0 0.0
2018-Jun-17 16:29N 52°00' E 003°12'0 0.0
2018-Jun-17 05:08N 52°00' E 003°12'0 0.0
2018-Jun-17 04:44N 52°00' E 003°12'0 0.0
2018-Jun-17 03:38N 52°00' E 003°12'0 0.1
2018-Jun-17 02:38N 52°00' E 003°12'0 0.0
2018-Jun-17 02:29N 52°00' E 003°12'0 0.2
2018-Jun-17 00:38N 52°00' E 003°12'0 0.1
2018-Jun-16 23:17N 52°00' E 003°11'0 0.0
2018-Jun-16 22:47N 52°00' E 003°11'0 0.0
2018-Jun-16 22:26N 52°00' E 003°11'0 0.2
2018-Jun-16 20:32N 52°00' E 003°12'0 0.3
2018-Jun-16 20:29N 52°00' E 003°12'0 0.1
2018-Jun-16 19:56N 52°00' E 003°12'0 0.1
2018-Jun-16 19:29N 52°00' E 003°12'0 0.0
2018-Jun-16 18:59N 52°00' E 003°12'0 0.0
2018-Jun-16 18:29N 52°00' E 003°12'0 0.0
2018-Jun-16 17:50N 52°00' E 003°12'0 0.0
2018-Jun-16 17:26N 52°00' E 003°12'0 0.0
2018-Jun-16 16:23N 52°00' E 003°12'0 0.1
2018-Jun-16 15:53N 52°00' E 003°12'0 0.0
2018-Jun-16 13:53N 52°00' E 003°12'0 0.3
2018-Jun-16 13:26N 52°00' E 003°12'0 0.4
2018-Jun-16 12:56N 52°00' E 003°12'0 0.1
2018-Jun-16 12:20N 52°00' E 003°12'0 0.1
2018-Jun-16 11:59N 52°00' E 003°11'0 0.0
2018-Jun-16 11:29N 52°00' E 003°11'0 0.0
2018-Jun-16 10:59N 52°00' E 003°11'0 0.0
2018-Jun-16 10:17N 52°00' E 003°11'0 0.0
2018-Jun-16 09:50N 52°00' E 003°11'0 0.0
2018-Jun-16 08:26N 52°00' E 003°11'0 0.4
2018-Jun-16 07:56N 52°00' E 003°11'0 0.2
2018-Jun-16 07:14N 52°00' E 003°12'0 0.0
2018-Jun-16 06:59N 52°00' E 003°12'0 0.0
2018-Jun-16 06:29N 52°00' E 003°12'0 0.1
2018-Jun-16 05:44N 52°00' E 003°12'0 0.0
2018-Jun-16 05:20N 52°00' E 003°12'0 0.1
2018-Jun-16 04:50N 52°00' E 003°12'0 0.0
2018-Jun-16 04:17N 52°00' E 003°12'0 0.1
2018-Jun-16 03:59N 52°00' E 003°12'0 0.0
2018-Jun-16 03:20N 52°00' E 003°12'0 0.0
2018-Jun-16 02:56N 52°00' E 003°12'0 0.0
2018-Jun-16 02:17N 52°00' E 003°12'0 0.1
2018-Jun-16 01:14N 52°00' E 003°12'0 0.4
2018-Jun-16 00:56N 52°00' E 003°12'0 0.2
2018-Jun-16 00:17N 52°00' E 003°12'0 0.0
2018-Jun-15 23:56N 52°00' E 003°12'0 0.1
2018-Jun-15 23:29N 52°00' E 003°11'0 0.0
2018-Jun-15 22:56N 52°00' E 003°11'0 0.0
2018-Jun-15 22:26N 52°00' E 003°11'0 0.0
2018-Jun-15 21:59N 52°00' E 003°11'0 0.0
2018-Jun-15 21:29N 52°00' E 003°11'0 0.1
2018-Jun-15 20:59N 52°00' E 003°12'0 0.0
2018-Jun-15 20:23N 52°00' E 003°12'0 0.0
2018-Jun-15 19:59N 52°00' E 003°12'0 0.2
2018-Jun-15 19:20N 52°00' E 003°11'0 0.3
2018-Jun-15 18:59N 52°00' E 003°12'0 0.1
2018-Jun-15 18:29N 52°00' E 003°12'0 0.1
2018-Jun-15 17:59N 52°00' E 003°12'0 0.0
2018-Jun-15 17:29N 52°00' E 003°12'0 0.0
2018-Jun-15 16:59N 52°00' E 003°12'0 0.0
2018-Jun-15 16:29N 52°00' E 003°12'0 0.0
2018-Jun-15 15:59N 52°00' E 003°12'0 0.0
2018-Jun-15 15:26N 52°00' E 003°12'0 0.0
2018-Jun-15 14:59N 52°00' E 003°12'0 0.1
2018-Jun-15 14:26N 52°00' E 003°12'0 0.0
2018-Jun-15 13:59N 52°00' E 003°12'0 0.0
2018-Jun-15 13:29N 52°00' E 003°12'0 0.2
2018-Jun-15 12:56N 52°00' E 003°12'0 0.4
2018-Jun-15 12:29N 52°00' E 003°12'0 0.1
2018-Jun-15 11:59N 52°00' E 003°12'0 0.1
2018-Jun-15 11:17N 52°00' E 003°12'0 0.0
2018-Jun-15 10:53N 52°00' E 003°12'0 0.1
2018-Jun-15 10:20N 52°00' E 003°11'0 0.0
2018-Jun-15 09:56N 52°00' E 003°11'0 0.0
2018-Jun-15 08:38N 52°00' E 003°11'0 0.0
2018-Jun-15 08:17N 52°00' E 003°12'0 0.0
2018-Jun-15 07:50N 52°00' E 003°12'0 0.0
2018-Jun-15 07:26N 52°00' E 003°12'0 0.2
2018-Jun-15 06:59N 52°00' E 003°11'0 0.2
2018-Jun-15 06:23N 52°00' E 003°12'  

Dump ship's entire track history